Time;durP1;ratioP1;P1;durP2;ratioP2;P2;SDS_P1;SDS_P2;PMS_P1;PMS_P2;Temp;Humidity;BMP_temperature;BMP_pressure;BME280_temperature;BME280_humidity;BME280_pressure;Samples;Min_cycle;Max_cycle;Signal;HPM_P1;HPM_P2
2022/04/24 00:00:55;;;;;;;14.50;8.40;;;;;;;8.95;83.23;97995.06;12204199;19;20010;-81
2022/04/24 00:04:57;;;;;;;14.35;7.53;;;;;;;8.91;84.01;97999.50;12207681;19;20018;-80
2022/04/24 00:08:59;;;;;;;13.60;8.27;;;;;;;8.86;83.64;97996.78;12185000;19;20350;-81
2022/04/24 00:13:00;;;;;;;13.95;8.32;;;;;;;8.83;84.28;97994.59;12207256;19;20068;-80
2022/04/24 00:17:02;;;;;;;11.93;7.80;;;;;;;8.80;84.46;97992.41;12201163;19;20074;-80
2022/04/24 00:21:05;;;;;;;12.18;7.80;;;;;;;8.75;85.85;97985.03;12185827;19;20019;-81
2022/04/24 00:25:07;;;;;;;12.10;8.02;;;;;;;8.72;86.05;97984.78;12200299;19;20010;-80
2022/04/24 00:29:09;;;;;;;12.60;7.60;;;;;;;8.72;85.40;97982.03;12200131;19;20086;-80
2022/04/24 00:33:11;;;;;;;11.60;6.93;;;;;;;8.73;85.78;97989.16;12185050;19;20007;-81
2022/04/24 00:37:12;;;;;;;12.98;7.80;;;;;;;8.77;85.62;97985.56;12199142;19;20011;-81
2022/04/24 00:41:15;;;;;;;11.53;7.53;;;;;;;8.83;86.47;97976.22;12200145;19;20014;-80
2022/04/24 00:45:16;;;;;;;14.05;8.32;;;;;;;8.95;85.91;97980.50;12178807;19;20027;-81
2022/04/24 00:49:23;;;;;;;11.82;8.07;;;;;;;9.07;84.80;97973.59;12198931;19;20010;-81
2022/04/24 00:53:24;;;;;;;10.65;7.47;;;;;;;9.19;84.05;97969.63;12210110;19;20010;-81
2022/04/24 00:57:26;;;;;;;12.68;7.78;;;;;;;9.30;84.07;97966.53;12178180;19;20015;-82
2022/04/24 01:01:29;;;;;;;12.13;7.32;;;;;;;9.40;83.55;97981.31;12208822;19;20027;-81
2022/04/24 01:05:31;;;;;;;;;;;;;;;9.45;83.89;97989.50;12205858;19;20011;-81
2022/04/24 01:09:34;;;;;;;10.27;7.10;;;;;;;9.52;82.53;97968.03;12186603;19;19935;-82
2022/04/24 01:13:36;;;;;;;12.25;6.72;;;;;;;9.62;81.45;97967.94;12206827;19;20011;-81
2022/04/24 01:17:39;;;;;;;11.27;6.45;;;;;;;9.77;79.85;97975.22;12206621;19;20015;-81
2022/04/24 01:21:42;;;;;;;10.00;6.20;;;;;;;9.90;79.18;97966.28;12188504;19;20386;-82
2022/04/24 01:25:44;;;;;;;10.02;6.13;;;;;;;9.98;78.36;97960.16;12219469;19;20006;-82
2022/04/24 01:29:45;;;;;;;10.07;5.30;;;;;;;10.02;76.12;97960.38;12191872;19;20007;-82
2022/04/24 01:33:47;;;;;;;11.32;6.63;;;;;;;10.12;75.03;97968.53;12214863;19;20531;-82
2022/04/24 01:37:49;;;;;;;7.55;5.60;;;;;;;10.17;74.34;97970.41;12211319;19;20006;-81
2022/04/24 01:41:51;;;;;;;10.13;5.30;;;;;;;10.12;72.60;97964.97;12188890;19;20498;-81
2022/04/24 01:45:53;;;;;;;8.65;5.60;;;;;;;10.20;72.58;97969.81;12208911;19;20403;-80
2022/04/24 01:49:55;;;;;;;9.63;5.65;;;;;;;10.19;71.57;97954.44;12214473;19;20499;-81
2022/04/24 01:53:56;;;;;;;8.20;4.85;;;;;;;10.21;71.51;97947.53;12195232;19;20463;-81
2022/04/24 01:57:58;;;;;;;6.53;4.67;;;;;;;10.18;70.11;97945.34;12209367;19;20368;-82
2022/04/24 02:02:00;;;;;;;8.23;5.00;;;;;;;10.24;70.36;97940.63;12215105;19;20097;-81
2022/04/24 02:06:04;;;;;;;7.05;4.20;;;;;;;10.24;69.18;97946.94;12191787;19;20551;-80
2022/04/24 02:10:06;;;;;;;7.22;4.18;;;;;;;10.26;68.81;97943.88;12211244;19;20031;-81
2022/04/24 02:14:08;;;;;;;7.07;4.90;;;;;;;10.25;67.85;97945.00;12207177;19;20382;-80
2022/04/24 02:18:09;;;;;;;6.93;4.00;;;;;;;10.29;68.16;97942.50;12189330;19;20018;-80
2022/04/24 02:22:11;;;;;;;15.63;6.57;;;;;;;10.29;67.35;97942.50;12214653;19;20059;-80
2022/04/24 02:26:13;;;;;;;6.45;3.70;;;;;;;10.27;65.96;97940.06;12217400;19;20007;-80
2022/04/24 02:30:15;;;;;;;7.03;4.38;;;;;;;10.32;65.44;97941.91;12189794;19;20007;-81
2022/04/24 02:34:16;;;;;;;5.50;3.50;;;;;;;10.33;65.01;97941.63;12210757;19;20030;-81
2022/04/24 02:38:18;;;;;;;7.75;3.83;;;;;;;10.30;63.93;97944.97;12217576;19;20027;-81
2022/04/24 02:42:20;;;;;;;5.85;3.95;;;;;;;10.36;64.00;97949.31;12193622;19;20014;-80
2022/04/24 02:46:21;;;;;;;7.28;3.33;;;;;;;10.31;62.51;97943.03;12216021;19;20006;-81
2022/04/24 02:50:23;;;;;;;5.72;3.53;;;;;;;10.36;62.66;97943.78;12220604;19;20349;-81
2022/04/24 02:54:25;;;;;;;5.10;3.00;;;;;;;10.38;62.87;97949.00;12189978;19;20452;-82
2022/04/24 02:58:27;;;;;;;5.10;2.92;;;;;;;10.34;62.59;97940.50;12206325;19;20029;-81
2022/04/24 03:02:29;;;;;;;4.80;3.30;;;;;;;10.37;63.05;97944.63;12218141;19;20014;-81
2022/04/24 03:06:31;;;;;;;5.70;3.47;;;;;;;10.38;63.27;97938.81;12182517;19;20034;-82
2022/04/24 03:10:32;;;;;;;6.65;3.42;;;;;;;10.32;61.92;97934.50;12213134;19;20042;-82
2022/04/24 03:14:34;;;;;;;5.75;3.42;;;;;;;10.36;62.47;97926.47;12224222;19;20018;-81
2022/04/24 03:18:36;;;;;;;6.30;4.05;;;;;;;10.37;62.54;97922.59;12216673;19;20014;-82
2022/04/24 03:22:39;;;;;;;8.80;3.13;;;;;;;10.31;62.10;97919.06;12249064;19;20014;-81
2022/04/24 03:26:41;;;;;;;5.57;3.33;;;;;;;10.26;62.23;97916.34;12224432;19;20027;-81
2022/04/24 03:30:43;;;;;;;4.95;3.38;;;;;;;10.26;62.20;97913.59;12184878;19;20134;-81
2022/04/24 03:34:44;;;;;;;5.18;3.75;;;;;;;10.24;61.77;97902.06;12204710;19;20027;-82
2022/04/24 03:38:49;;;;;;;4.40;3.13;;;;;;;10.29;61.94;97915.78;12176182;19;20014;-82
2022/04/24 03:42:54;;;;;;;5.57;3.38;;;;;;;10.31;62.01;97910.81;12206996;19;20027;-81
2022/04/24 03:46:55;;;;;;;6.13;3.25;;;;;;;10.34;61.91;97935.00;12203412;19;20102;-81
2022/04/24 03:50:57;;;;;;;6.40;3.53;;;;;;;10.28;61.03;97963.72;12181031;19;20476;-80
2022/04/24 03:54:59;;;;;;;6.43;3.60;;;;;;;10.35;61.36;98002.75;12205277;19;20027;-80
2022/04/24 03:59:01;;;;;;;5.18;3.60;;;;;;;10.34;61.55;98045.13;12201024;19;20087;-81
2022/04/24 04:03:03;;;;;;;6.13;3.70;;;;;;;10.40;61.80;98046.72;12188121;19;20029;-81
2022/04/24 04:07:47;;;;;;;4.47;3.03;;;;;;;10.42;62.28;98043.69;12207251;19;20031;-80
2022/04/24 04:12:06;;;;;;;5.95;3.65;;;;;;;10.39;63.48;98047.84;12188556;19;20022;-81
2022/04/24 04:16:07;;;;;;;5.82;3.40;;;;;;;10.37;64.86;98044.53;12212606;19;20099;-80
2022/04/24 04:20:11;;;;;;;4.97;3.25;;;;;;;10.33;65.76;98046.25;12215361;19;20059;-80
2022/04/24 04:24:13;;;;;;;5.80;3.28;;;;;;;10.25;68.28;98041.34;12191022;19;20075;-80
2022/04/24 04:28:15;;;;;;;4.57;3.33;;;;;;;10.12;69.87;98036.53;12217004;19;20504;-80
2022/04/24 04:32:18;;;;;;;5.90;3.85;;;;;;;9.93;71.42;98034.47;12210758;19;20014;-80
2022/04/24 04:36:20;;;;;;;5.55;3.97;;;;;;;9.94;72.43;98038.88;12186557;19;20011;-79
2022/04/24 04:40:22;;;;;;;7.03;4.40;;;;;;;9.84;76.25;98033.47;12205416;19;20082;-80
2022/04/24 04:44:24;;;;;;;6.95;4.57;;;;;;;9.73;77.78;98023.69;12202074;19;20011;-80
2022/04/24 04:48:26;;;;;;;7.68;4.95;;;;;;;9.63;79.47;98040.25;12178961;19;20015;-79
2022/04/24 04:52:28;;;;;;;7.20;4.82;;;;;;;9.55;80.96;98038.94;12203273;19;20018;-79
2022/04/24 04:56:30;;;;;;;11.48;5.13;;;;;;;9.49;82.05;98038.16;12204423;19;20024;-79
2022/04/24 05:00:31;;;;;;;7.60;5.35;;;;;;;9.44;83.83;98049.19;12197811;19;20011;-79
2022/04/24 05:04:33;;;;;;;7.95;5.05;;;;;;;9.41;83.50;98044.25;12215184;19;20058;-81
2022/04/24 05:08:35;;;;;;;6.90;4.60;;;;;;;9.34;83.24;98032.78;12219528;19;20070;-80
2022/04/24 05:12:41;;;;;;;8.00;4.32;;;;;;;9.30;83.26;98037.19;12197438;19;20023;-80
2022/04/24 05:16:42;;;;;;;7.82;4.80;;;;;;;9.30;84.20;98026.19;12217989;19;20007;-79
2022/04/24 05:20:45;;;;;;;7.88;5.22;;;;;;;9.37;84.79;98029.44;12192933;19;20019;-80
2022/04/24 05:24:47;;;;;;;6.77;4.70;;;;;;;9.41;84.25;98027.75;12216532;19;20098;-79
2022/04/24 05:28:48;;;;;;;8.13;5.03;;;;;;;9.46;84.13;98026.88;12220893;19;20021;-80
2022/04/24 05:32:51;;;;;;;8.95;5.20;;;;;;;9.51;83.57;98029.59;12197664;19;20413;-80
2022/04/24 05:36:52;;;;;;;8.48;5.18;;;;;;;9.56;83.56;98029.56;12219269;19;20017;-80
2022/04/24 05:40:54;;;;;;;6.95;4.70;;;;;;;9.62;83.16;98033.13;12222281;19;20021;-80
2022/04/24 05:45:04;;;;;;;8.52;5.28;;;;;;;9.67;82.02;98035.84;12196120;19;20054;-80
2022/04/24 05:49:06;;;;;;;7.45;5.20;;;;;;;9.78;80.88;98037.38;12218057;19;20014;-81
2022/04/24 05:53:12;;;;;;;6.95;4.90;;;;;;;9.84;79.75;98049.16;12218478;19;20014;-80
2022/04/24 05:57:14;;;;;;;8.15;5.05;;;;;;;9.80;79.06;98040.66;12197626;19;20010;-80
2022/04/24 06:01:15;;;;;;;9.07;5.45;;;;;;;9.93;78.26;98039.97;12221306;19;20455;-80
2022/04/24 06:05:17;;;;;;;7.47;4.75;;;;;;;9.99;78.24;98044.34;12219593;19;19998;-81
2022/04/24 06:09:19;;;;;;;8.67;5.43;;;;;;;10.06;78.28;98044.00;12191455;19;20007;-81
2022/04/24 06:13:24;;;;;;;8.95;5.72;;;;;;;10.10;78.36;98053.31;12218120;19;20252;-80
2022/04/24 06:17:26;;;;;;;7.07;5.40;;;;;;;10.08;78.97;98057.47;12217026;19;20024;-81
2022/04/24 06:21:28;;;;;;;8.52;5.40;;;;;;;10.11;79.93;98051.38;12193767;19;20028;-81
2022/04/24 06:25:31;;;;;;;10.18;5.63;;;;;;;10.06;81.23;98055.03;12215580;19;20356;-80
2022/04/24 06:29:33;;;;;;;8.93;6.30;;;;;;;10.16;81.88;98054.09;12219566;19;20031;-80
2022/04/24 06:33:35;;;;;;;11.45;6.80;;;;;;;10.26;82.72;98053.97;12194873;19;20559;-81
2022/04/24 06:37:37;;;;;;;8.15;5.80;;;;;;;10.39;83.24;98056.09;12212836;19;20050;-82
2022/04/24 06:41:39;;;;;;;8.25;5.70;;;;;;;10.54;83.10;98060.63;12218277;19;20011;-81
2022/04/24 06:45:54;;;;;;;11.32;6.43;;;;;;;10.62;82.69;98054.47;12195242;19;20006;-82
2022/04/24 06:49:56;;;;;;;9.45;6.68;;;;;;;10.68;82.13;98052.50;12214289;19;20073;-80
2022/04/24 06:53:58;;;;;;;10.20;5.70;;;;;;;10.75;82.50;98055.69;12195366;19;20752;-83
2022/04/24 06:58:00;;;;;;;10.45;6.95;;;;;;;10.82;82.66;98061.66;12217424;19;20003;-80
2022/04/24 07:02:02;;;;;;;9.95;6.35;;;;;;;10.87;82.74;98064.34;12218009;19;20014;-83
2022/04/24 07:06:04;;;;;;;9.88;6.72;;;;;;;10.94;82.83;98064.00;12196751;19;20367;-82
2022/04/24 07:10:06;;;;;;;9.38;6.20;;;;;;;10.99;82.88;98060.38;12217343;19;20011;-83
2022/04/24 07:14:08;;;;;;;9.33;6.70;;;;;;;11.01;82.92;98060.91;12217720;19;20015;-82
2022/04/24 07:18:10;;;;;;;8.35;5.80;;;;;;;11.09;82.43;98065.72;12188477;19;20018;-81
2022/04/24 07:22:12;;;;;;;10.25;6.70;;;;;;;11.20;81.03;98061.72;12216440;19;20014;-83
2022/04/24 07:26:14;;;;;;;9.02;6.32;;;;;;;11.35;81.34;98063.47;12216168;19;20579;-81
2022/04/24 07:30:17;;;;;;;9.98;6.18;;;;;;;11.44;81.65;98066.38;12187701;19;20020;-81
2022/04/24 07:34:19;;;;;;;10.30;6.25;;;;;;;11.45;81.34;98056.97;12212621;19;20304;-83
2022/04/24 07:38:21;;;;;;;11.73;6.45;;;;;;;11.52;80.34;98066.50;12210211;19;20011;-81
2022/04/24 07:42:22;;;;;;;12.73;6.45;;;;;;;11.62;79.95;98069.09;12199986;19;20022;-82
2022/04/24 07:46:24;;;;;;;8.63;5.70;;;;;;;11.74;78.75;98074.16;12213652;19;20010;-81
2022/04/24 07:50:28;;;;;;;9.57;6.45;;;;;;;11.89;77.36;98072.31;12209450;19;20015;-81
2022/04/24 07:54:30;;;;;;;10.35;7.00;;;;;;;12.12;75.67;98076.91;12194290;19;20031;-81
2022/04/24 07:58:32;;;;;;;11.00;6.78;;;;;;;12.21;73.96;98080.63;12210974;19;20019;-81
2022/04/24 08:03:02;;;;;;;11.85;6.45;;;;;;;12.23;73.24;98081.13;12214411;19;20015;-82
2022/04/24 08:07:05;;;;;;;12.23;6.97;;;;;;;12.27;72.80;98084.91;12187834;19;20070;-82
2022/04/24 08:11:06;;;;;;;8.40;6.13;;;;;;;12.28;73.29;98085.72;12218715;19;20006;-82
2022/04/24 08:15:09;;;;;;;9.02;6.32;;;;;;;12.33;73.04;98093.94;12196872;19;20469;-82
2022/04/24 08:19:10;;;;;;;11.50;7.23;;;;;;;12.34;72.11;98092.81;12216376;19;20102;-81
2022/04/24 08:23:18;;;;;;;10.32;6.82;;;;;;;12.39;71.92;98089.16;12221348;19;20475;-82
2022/04/24 08:27:23;;;;;;;10.50;6.45;;;;;;;12.52;71.19;98091.09;12182972;19;20010;-81
2022/04/24 08:31:25;;;;;;;10.95;6.82;;;;;;;12.63;69.81;98087.03;12207949;19;20094;-81
2022/04/24 08:35:27;;;;;;;10.35;6.50;;;;;;;12.89;67.92;98089.31;12213324;19;20003;-82
2022/04/24 08:39:32;;;;;;;10.55;7.32;;;;;;;13.16;67.57;98100.34;12205815;19;20007;-80
2022/04/24 08:43:34;;;;;;;10.27;6.97;;;;;;;13.53;65.95;98095.72;12227409;19;20006;-81
2022/04/24 08:47:36;;;;;;;13.27;7.17;;;;;;;13.76;65.48;98104.06;12210715;19;20017;-80
2022/04/24 08:51:39;;;;;;;10.27;7.43;;;;;;;13.92;64.01;98099.81;12195242;19;20018;-80
2022/04/24 08:55:41;;;;;;;11.60;8.07;;;;;;;14.23;63.45;98099.06;12203792;19;20188;-80
2022/04/24 08:59:43;;;;;;;12.32;8.25;;;;;;;14.69;61.89;98103.41;12197466;19;20424;-79
2022/04/24 09:04:03;;;;;;;12.07;8.27;;;;;;;14.98;59.30;98106.50;12215451;19;20015;-80
2022/04/24 09:08:08;;;;;;;9.00;7.17;;;;;;;15.43;59.20;98113.81;12213115;19;20007;-81
2022/04/24 09:12:30;;;;;;;12.27;8.48;;;;;;;15.45;57.53;98111.53;12193386;19;20022;-80
2022/04/24 09:16:34;;;;;;;11.43;8.13;;;;;;;15.20;58.14;98113.09;12209743;19;20037;-80
2022/04/24 09:20:42;;;;;;;10.60;7.75;;;;;;;15.18;58.76;98112.63;12216205;19;20082;-78
2022/04/24 09:24:56;;;;;;;15.43;8.45;;;;;;;15.16;58.55;98104.59;12195151;19;20010;-81
2022/04/24 09:29:01;;;;;;;;;;;;;;;15.05;57.37;98103.28;12233347;19;20022;-80
2022/04/24 09:33:07;;;;;;;11.27;8.32;;;;;;;14.99;58.14;98105.38;12196973;19;20759;-81
2022/04/24 09:37:09;;;;;;;9.55;7.43;;;;;;;15.01;59.04;98107.81;12206671;19;20011;-79
2022/04/24 09:46:38;;;;;;;10.40;8.07;;;;;;;14.96;59.88;98116.25;12240664;19;20016;-81
2022/04/24 09:51:09;;;;;;;10.85;8.20;;;;;;;14.85;60.09;98117.72;12203099;19;20011;-80
2022/04/24 09:55:22;;;;;;;12.18;7.80;;;;;;;14.87;60.96;98118.19;12222251;19;20468;-80
2022/04/24 09:59:32;;;;;;;10.00;7.13;;;;;;;14.91;60.60;98125.56;12215882;19;20089;-80
2022/04/24 10:04:24;;;;;;;16.00;7.97;;;;;;;14.82;60.80;98133.03;12194525;19;20014;-80
2022/04/24 10:08:53;;;;;;;12.70;8.98;;;;;;;14.82;60.86;98127.47;12210428;19;20026;-80
2022/04/24 10:13:25;;;;;;;12.57;8.07;;;;;;;14.64;60.78;98137.66;12110223;19;2004379;-80
2022/04/24 10:18:18;;;;;;;10.52;7.90;;;;;;;14.70;60.81;98138.34;12205170;19;20638;-80
2022/04/24 10:23:09;;;;;;;11.40;8.30;;;;;;;14.62;60.70;98136.34;12214626;19;20010;-80
2022/04/24 10:27:17;;;;;;;13.60;9.52;;;;;;;14.51;60.28;98147.66;12187722;19;20482;-81
2022/04/24 10:31:35;;;;;;;;;;;;;;;;;;;;;
2022/04/24 10:36:10;;;;;;;;;;;;;;;;;;;;;
2022/04/24 10:40:55;;;;;;;15.35;8.20;;;;;;;14.62;60.20;98155.75;12209552;19;20356;-78
2022/04/24 10:50:09;;;;;;;12.98;9.02;;;;;;;14.66;61.27;98162.28;12157136;19;20018;-80
2022/04/24 11:05:41;;;;;;;12.38;8.95;;;;;;;14.52;60.60;98162.38;12208668;19;20180;-80
2022/04/24 11:09:44;;;;;;;11.15;8.88;;;;;;;14.51;60.80;98172.63;12186449;19;20492;-79
2022/04/24 11:13:46;;;;;;;12.57;8.60;;;;;;;14.45;61.47;98165.53;12210314;19;20112;-79
2022/04/24 11:17:48;;;;;;;15.18;9.20;;;;;;;14.50;61.85;98167.38;12188590;19;20048;-79
2022/04/24 11:22:00;;;;;;;12.30;9.00;;;;;;;14.52;62.06;98160.41;12202734;19;20017;-79
2022/04/24 11:26:09;;;;;;;14.43;9.38;;;;;;;14.56;62.41;98171.69;12214883;19;20480;-79
2022/04/24 11:30:19;;;;;;;13.63;9.25;;;;;;;14.63;61.75;98171.22;12194244;19;20011;-79
2022/04/24 11:34:23;;;;;;;12.07;9.15;;;;;;;14.55;62.30;98178.38;12214800;19;20027;-79
2022/04/24 11:38:29;;;;;;;15.32;10.88;;;;;;;14.59;62.56;98182.94;12205221;19;20003;-79
2022/04/24 11:42:31;;;;;;;17.08;10.50;;;;;;;14.63;63.10;98187.84;12196539;19;20357;-79
2022/04/24 11:50:53;;;;;;;13.20;9.65;;;;;;;14.59;63.50;98190.44;12192661;19;21147;-79
2022/04/24 11:55:20;;;;;;;15.30;11.02;;;;;;;14.66;64.16;98190.00;12219045;19;20078;-80
2022/04/24 11:59:22;;;;;;;13.38;9.38;;;;;;;14.71;64.50;98190.69;12218395;19;20023;-80
2022/04/24 12:03:24;;;;;;;16.45;10.55;;;;;;;14.86;64.24;98203.34;12200705;19;20019;-80
2022/04/24 12:07:32;;;;;;;15.95;10.45;;;;;;;14.79;64.73;98211.31;12216930;19;20011;-80
2022/04/24 12:11:35;;;;;;;16.42;10.30;;;;;;;14.57;65.33;98199.09;12221734;19;20102;-80
2022/04/24 12:15:49;;;;;;;14.40;10.18;;;;;;;14.64;65.52;98209.72;12199184;19;20014;-80
2022/04/24 12:19:54;;;;;;;16.25;10.52;;;;;;;14.77;65.50;98216.34;12221480;19;20368;-80
2022/04/24 12:23:57;;;;;;;14.73;10.20;;;;;;;14.80;65.21;98218.47;12200352;19;20003;-80
2022/04/24 12:27:58;;;;;;;15.52;10.73;;;;;;;14.80;65.01;98218.47;12224291;19;20010;-80
2022/04/24 12:32:06;;;;;;;17.27;11.32;;;;;;;14.99;64.88;98221.03;12221094;19;20011;-80
2022/04/24 12:36:14;;;;;;;15.73;10.15;;;;;;;15.11;64.91;98224.06;12203994;19;20023;-80
2022/04/24 12:40:15;;;;;;;14.82;10.73;;;;;;;15.09;65.45;98231.06;12244795;19;20011;-81
2022/04/24 12:44:17;;;;;;;15.85;10.85;;;;;;;15.20;64.82;98226.84;12258238;19;20022;-82
2022/04/24 12:48:28;;;;;;;16.73;10.85;;;;;;;15.22;64.78;98230.13;12235604;19;20014;-80
2022/04/24 12:52:30;;;;;;;13.43;10.45;;;;;;;15.29;64.98;98233.28;12255856;19;20011;-82
2022/04/24 12:56:32;;;;;;;15.95;10.52;;;;;;;15.28;65.21;98223.31;12263606;19;20188;-81
2022/04/24 13:00:36;;;;;;;15.20;11.48;;;;;;;15.33;65.59;98225.94;12241590;19;20006;-83
2022/04/24 13:04:39;;;;;;;16.42;10.75;;;;;;;15.37;65.33;98232.47;12255115;19;20010;-83
2022/04/24 13:08:43;;;;;;;13.83;10.43;;;;;;;15.33;64.67;98236.22;12258050;19;20082;-81
2022/04/24 13:12:44;;;;;;;14.18;10.90;;;;;;;15.32;64.12;98229.88;12230185;19;20011;-84
2022/04/24 13:21:07;;;;;;;16.25;10.20;;;;;;;15.24;64.41;98239.78;12217984;19;20025;-81
2022/04/24 13:25:08;;;;;;;13.15;10.27;;;;;;;15.06;63.82;98242.78;12240125;19;20016;-81
2022/04/24 13:29:10;;;;;;;13.60;10.18;;;;;;;14.78;64.99;98241.00;12245175;19;20011;-81
2022/04/24 13:33:18;;;;;;;13.35;10.13;;;;;;;14.57;65.80;98240.69;12230430;19;20025;-82
2022/04/24 13:41:48;;;;;;;15.88;10.45;;;;;;;14.42;66.63;98240.97;12215071;19;20011;-81
2022/04/24 13:45:54;;;;;;;14.85;10.63;;;;;;;14.45;66.43;98256.16;12230570;19;20022;-81
2022/04/24 13:49:59;;;;;;;14.05;10.35;;;;;;;14.34;67.15;98267.50;12224606;19;20017;-81
2022/04/24 13:54:01;;;;;;;14.20;9.77;;;;;;;14.31;67.50;98265.38;12211284;19;20006;-80
2022/04/24 13:58:04;;;;;;;15.23;11.05;;;;;;;14.24;67.66;98278.00;12232733;19;20019;-81
2022/04/24 14:02:06;;;;;;;15.80;10.82;;;;;;;14.05;68.58;98276.19;12232469;19;20011;-81
2022/04/24 14:06:08;;;;;;;16.83;11.55;;;;;;;13.92;68.73;98271.50;12210607;19;20033;-81
2022/04/24 14:10:10;;;;;;;16.85;11.10;;;;;;;13.83;68.99;98278.84;12227695;19;20011;-82
2022/04/24 14:14:12;;;;;;;15.98;11.25;;;;;;;13.63;70.50;98289.22;12231366;19;20007;-81
2022/04/24 14:18:13;;;;;;;16.02;11.27;;;;;;;13.57;70.53;98281.34;12207263;19;20670;-80
2022/04/24 14:22:19;;;;;;;16.60;10.95;;;;;;;13.50;71.25;98284.50;12229064;19;20027;-80
2022/04/24 14:26:21;;;;;;;20.73;13.18;;;;;;;13.40;72.10;98290.25;12227816;19;20015;-80
2022/04/24 14:30:23;;;;;;;15.90;11.67;;;;;;;13.36;73.13;98301.09;12203588;19;20014;-80
2022/04/24 14:34:25;;;;;;;17.77;12.30;;;;;;;13.28;74.11;98301.78;12228043;19;20275;-80
2022/04/24 14:38:31;;;;;;;19.17;12.13;;;;;;;13.23;74.12;98307.38;12224252;19;20014;-80
2022/04/24 14:42:34;;;;;;;19.35;12.60;;;;;;;13.17;74.69;98316.88;12203311;19;20003;-79
2022/04/24 14:59:43;;;;;;;18.30;12.43;;;;;;;12.91;76.73;98339.47;12200813;19;20363;-80
2022/04/24 15:03:46;;;;;;;18.70;12.52;;;;;;;12.89;77.67;98340.88;12216729;19;20011;-81
2022/04/24 15:07:49;;;;;;;17.55;12.40;;;;;;;12.91;78.00;98352.44;12216378;19;20002;-80
2022/04/24 15:11:51;;;;;;;19.45;13.02;;;;;;;12.89;77.94;98360.22;12198617;19;20020;-80
2022/04/24 15:15:53;;;;;;;20.25;12.88;;;;;;;12.87;78.19;98362.47;12218062;19;20362;-80
2022/04/24 15:20:02;;;;;;;16.77;11.75;;;;;;;12.83;79.25;98353.97;12219376;19;20015;-80
2022/04/24 15:24:09;;;;;;;19.50;12.85;;;;;;;12.77;78.66;98367.03;12197077;19;20356;-79
2022/04/24 15:28:10;;;;;;;19.70;12.88;;;;;;;12.85;78.92;98361.94;12218426;19;20022;-80
2022/04/24 15:32:12;;;;;;;19.35;12.93;;;;;;;12.86;79.19;98377.41;12218386;19;20011;-81
2022/04/24 15:36:21;;;;;;;18.27;13.50;;;;;;;12.89;79.51;98382.34;12196565;19;20036;-79
2022/04/24 15:40:23;;;;;;;19.67;12.23;;;;;;;12.84;80.66;98382.41;12215609;19;20026;-81
2022/04/24 15:44:25;;;;;;;24.83;12.23;;;;;;;12.74;81.86;98394.44;12213148;19;20018;-80
2022/04/24 15:48:30;;;;;;;21.63;14.02;;;;;;;12.56;80.75;98401.63;12185646;19;20511;-80
2022/04/24 15:52:32;;;;;;;25.75;12.77;;;;;;;12.55;80.92;98405.47;12213110;19;20007;-79
2022/04/24 15:56:34;;;;;;;26.33;17.30;;;;;;;12.46;78.83;98416.41;12213857;19;20014;-81
2022/04/24 16:00:37;;;;;;;23.25;17.27;;;;;;;12.46;76.67;98418.31;12184941;19;20010;-82
2022/04/24 16:04:38;;;;;;;22.60;16.17;;;;;;;12.39;74.94;98418.69;12213232;19;20019;-80
2022/04/24 16:08:40;;;;;;;26.77;19.58;;;;;;;12.36;75.27;98429.50;12215433;19;20351;-80
2022/04/24 16:12:42;;;;;;;28.63;20.83;;;;;;;12.35;75.31;98425.09;12188791;19;20010;-80
2022/04/24 16:16:44;;;;;;;32.53;25.67;;;;;;;12.29;75.20;98425.16;12211406;19;20014;-81
2022/04/24 16:20:46;;;;;;;26.55;19.65;;;;;;;12.20;74.97;98426.13;12191861;19;20014;-79
2022/04/24 16:24:49;;;;;;;26.05;17.67;;;;;;;12.15;75.48;98432.50;12203911;19;20484;-79
2022/04/24 16:28:52;;;;;;;23.10;17.92;;;;;;;12.11;78.38;98439.75;12210553;19;20018;-78
2022/04/24 16:32:53;;;;;;;22.02;15.90;;;;;;;12.03;78.05;98434.84;12189145;19;20010;-78
2022/04/24 16:36:57;;;;;;;19.90;15.20;;;;;;;12.00;79.96;98438.19;12214117;19;20035;-79
2022/04/24 16:40:59;;;;;;;23.02;15.98;;;;;;;11.95;79.93;98438.25;12207518;19;20032;-79
2022/04/24 16:45:01;;;;;;;21.50;15.95;;;;;;;11.85;80.44;98448.28;12183787;19;20027;-81
2022/04/24 16:49:03;;;;;;;24.15;15.93;;;;;;;11.78;81.26;98447.78;12199239;19;20007;-79
2022/04/24 17:01:48;;;;;;;22.40;16.27;;;;;;;11.80;82.62;98450.25;12224301;19;20006;-79
2022/04/24 17:05:51;;;;;;;21.90;15.40;;;;;;;11.78;82.82;98447.78;12202678;19;20011;-80
2022/04/24 17:09:53;;;;;;;22.58;15.70;;;;;;;11.76;82.10;98443.66;12220744;19;20006;-80
2022/04/24 17:13:55;;;;;;;22.00;15.55;;;;;;;11.73;82.05;98450.59;12224795;19;20011;-81
2022/04/24 17:17:58;;;;;;;25.60;15.60;;;;;;;11.72;83.26;98454.47;12203869;19;20042;-79
2022/04/24 17:22:00;;;;;;;23.60;15.03;;;;;;;11.75;83.30;98461.31;12226654;19;20019;-80
2022/04/24 17:26:03;;;;;;;19.17;13.70;;;;;;;11.69;83.14;98459.72;12226079;19;20011;-80
2022/04/24 17:30:06;;;;;;;;;;;;;;;11.65;84.41;98467.75;12202271;19;20006;-80
2022/04/24 17:34:08;;;;;;;21.13;14.10;;;;;;;11.66;83.47;98469.44;12228499;19;19934;-80
2022/04/24 17:38:11;;;;;;;22.40;15.05;;;;;;;11.66;83.68;98476.84;12225863;19;20010;-80
2022/04/24 17:42:12;;;;;;;17.50;13.27;;;;;;;11.68;83.90;98483.72;12206288;19;20074;-79
2022/04/24 17:46:15;;;;;;;19.88;14.23;;;;;;;11.68;83.97;98480.97;12222025;19;20011;-80
2022/04/24 17:50:20;;;;;;;20.27;14.25;;;;;;;11.64;84.79;98493.72;12221145;19;20049;-80
2022/04/24 17:54:22;;;;;;;20.58;13.82;;;;;;;11.53;85.03;98490.22;12199220;19;20014;-79
2022/04/24 17:58:28;;;;;;;18.23;13.52;;;;;;;11.37;85.66;98492.28;12217956;19;20026;-80
2022/04/24 18:02:32;;;;;;;19.70;14.68;;;;;;;11.29;85.40;98495.63;12226560;19;20628;-79
2022/04/24 18:06:38;;;;;;;20.20;14.10;;;;;;;11.18;86.14;98505.94;12199653;19;20010;-80
2022/04/24 18:10:41;;;;;;;18.45;13.40;;;;;;;11.03;85.68;98510.69;12216096;19;20007;-78
2022/04/24 18:14:43;;;;;;;;;;;;;;;10.91;86.59;98508.28;12199388;19;20029;-79
2022/04/24 18:18:51;;;;;;;19.90;13.45;;;;;;;10.80;85.71;98513.03;12218635;19;19919;-79
2022/04/24 18:22:53;;;;;;;17.23;13.32;;;;;;;10.75;85.14;98521.31;12220255;19;20014;-79
2022/04/24 18:26:56;;;;;;;18.57;12.87;;;;;;;10.69;85.78;98527.94;12190631;19;20014;-79
2022/04/24 18:30:59;;;;;;;17.15;12.13;;;;;;;10.63;85.58;98526.31;12220990;19;20006;-79
2022/04/24 18:35:01;;;;;;;17.65;13.07;;;;;;;10.59;85.94;98541.75;12219405;19;20475;-78
2022/04/24 18:39:15;;;;;;;17.92;12.35;;;;;;;10.51;85.42;98539.59;12193090;19;20385;-79
2022/04/24 18:43:16;;;;;;;17.50;12.32;;;;;;;10.44;85.92;98559.13;12217162;19;20011;-79
2022/04/24 18:47:20;;;;;;;18.55;13.65;;;;;;;10.37;87.23;98561.38;12210743;19;20516;-80
2022/04/24 18:51:23;;;;;;;17.77;13.02;;;;;;;10.29;87.21;98567.44;12192413;19;20011;-79
2022/04/24 18:55:25;;;;;;;19.17;13.20;;;;;;;10.20;87.03;98567.16;12218876;19;20014;-79
2022/04/24 18:59:29;;;;;;;17.53;13.27;;;;;;;10.12;87.53;98573.25;12216191;19;21493;-79
2022/04/24 19:03:31;;;;;;;17.33;13.13;;;;;;;10.01;88.31;98576.00;12194958;19;20025;-80
2022/04/24 19:07:33;;;;;;;18.90;13.18;;;;;;;9.91;88.35;98586.19;12214434;19;20071;-80
2022/04/24 19:11:35;;;;;;;20.47;13.43;;;;;;;9.78;88.91;98593.03;12206651;19;20011;-79
2022/04/24 19:15:37;;;;;;;19.65;13.05;;;;;;;9.69;89.24;98595.50;12189590;19;20020;-79
2022/04/24 19:19:39;;;;;;;20.08;14.40;;;;;;;9.59;89.88;98615.59;12215890;19;20015;-79
2022/04/24 19:23:40;;;;;;;21.25;13.95;;;;;;;9.50;90.20;98614.47;12216611;19;20079;-79
2022/04/24 19:27:43;;;;;;;21.23;13.80;;;;;;;9.41;90.72;98624.34;12197982;19;20010;-79
2022/04/24 19:31:46;;;;;;;;;;;;;;;9.29;91.11;98626.53;12212906;19;20026;-80
2022/04/24 19:35:48;;;;;;;21.88;13.40;;;;;;;9.20;90.63;98625.41;12184863;19;20353;-79
2022/04/24 19:39:50;;;;;;;18.40;13.88;;;;;;;9.13;91.17;98640.22;12211389;19;20118;-78
2022/04/24 19:43:52;;;;;;;20.98;13.55;;;;;;;9.06;91.46;98636.88;12202627;19;20014;-79
2022/04/24 19:52:15;;;;;;;18.73;13.40;;;;;;;8.92;92.13;98641.22;12203751;19;20066;-79